Time;durP1;ratioP1;P1;durP2;ratioP2;P2;SDS_P1;SDS_P2;PMS_P1;PMS_P2;Temp;Humidity;BMP_temperature;BMP_pressure;BME280_temperature;BME280_humidity;BME280_pressure;Samples;Min_cycle;Max_cycle;Signal;HPM_P1;HPM_P2
2021/01/27 00:01:07;;;;;;;;;;;;;;;17.51;60.20;101454.88;4971526;28;807;-70
2021/01/27 00:03:34;;;;;;;;;;;;;;;17.49;59.98;101449.66;4971067;28;1919;-70
2021/01/27 00:06:01;;;;;;;;;;;;;;;17.48;60.00;101458.47;4970983;28;1037;-69
2021/01/27 00:08:27;;;;;;;;;;;;;;;17.49;59.66;101458.41;4970030;28;1444;-70
2021/01/27 00:10:53;;;;;;;;;;;;;;;17.46;59.51;101471.72;4971094;28;778;-70
2021/01/27 00:13:20;;;;;;;;;;;;;;;17.50;59.95;101477.72;4971198;28;1359;-70
2021/01/27 00:15:49;;;;;;;;;;;;;;;17.48;59.53;101492.72;4954069;28;1053;-69
2021/01/27 00:18:17;;;;;;;;;;;;;;;17.40;59.44;101498.28;4971210;28;1282;-67
2021/01/27 00:20:44;;;;;;;;;;;;;;;17.42;59.34;101495.59;4970983;28;796;-69
2021/01/27 00:23:11;;;;;;;;;;;;;;;17.42;59.47;101485.91;4971244;28;1981;-69
2021/01/27 00:25:38;;;;;;;;;;;;;;;17.38;59.43;101451.88;4971240;28;775;-68
2021/01/27 00:28:05;;;;;;;;;;;;;;;17.35;59.54;101413.34;4970858;28;1329;-68
2021/01/27 00:30:32;;;;;;;;;;;;;;;17.36;59.66;101411.56;4970981;28;1075;-68
2021/01/27 00:33:03;;;;;;;;;;;;;;;17.37;59.31;101421.19;4937841;28;1301;-67
2021/01/27 00:35:32;;;;;;;;;;;;;;;17.37;59.85;101421.19;4970666;28;918;-70
2021/01/27 00:37:59;;;;;;;;;;;;;;;17.39;60.16;101414.06;4970598;28;1233;-69
2021/01/27 00:40:26;;;;;;;;;;;;;;;17.39;59.77;101420.19;4970552;28;839;-68
2021/01/27 00:42:52;;;;;;;;;;;;;;;17.36;59.42;101401.88;4970334;28;1903;-69
2021/01/27 00:45:19;;;;;;;;;;;;;;;17.36;59.29;101401.00;4970372;28;857;-68
2021/01/27 00:47:46;;;;;;;;;;;;;;;17.33;59.54;101398.50;4952951;28;1315;-68
2021/01/27 00:50:16;;;;;;;;;;;;;;;17.33;59.28;101394.09;4970561;28;815;-68
2021/01/27 00:52:43;;;;;;;;;;;;;;;17.32;59.03;101405.59;4970533;28;1315;-68
2021/01/27 00:55:21;;;;;;;;;;;;;;;17.35;59.23;101409.84;4953068;28;1373;-69
2021/01/27 00:57:47;;;;;;;;;;;;;;;17.31;58.90;101414.38;4968628;28;1386;-68
2021/01/27 01:00:18;;;;;;;;;;;;;;;17.31;59.12;101403.84;4970250;28;870;-68
2021/01/27 01:02:45;;;;;;;;;;;;;;;17.29;59.08;101402.22;4950611;29;1990;-68
2021/01/27 01:05:13;;;;;;;;;;;;;;;17.30;59.34;101403.91;4933890;29;1642;-69
2021/01/27 01:07:42;;;;;;;;;;;;;;;17.29;58.97;101404.84;4950626;29;1229;-69
2021/01/27 01:10:08;;;;;;;;;;;;;;;17.29;59.35;101397.81;4950645;28;748;-68
2021/01/27 01:12:34;;;;;;;;;;;;;;;17.29;59.26;101378.50;4950694;29;1222;-68
2021/01/27 01:15:01;;;;;;;;;;;;;;;17.29;59.56;101376.75;4950621;29;1178;-68
2021/01/27 01:17:27;;;;;;;;;;;;;;;17.29;59.32;101395.16;4949315;28;1296;-68
2021/01/27 01:19:54;;;;;;;;;;;;;;;17.29;59.00;101389.03;4951217;28;1254;-69
2021/01/27 01:22:22;;;;;;;;;;;;;;;17.28;59.03;101397.84;4933296;29;1914;-69
2021/01/27 01:24:48;;;;;;;;;;;;;;;17.28;58.97;101395.22;4933560;29;1242;-69
2021/01/27 01:27:14;;;;;;;;;;;;;;;17.27;59.01;101390.88;4949756;29;1287;-70
2021/01/27 01:29:41;;;;;;;;;;;;;;;17.25;58.87;101372.50;4951125;28;1201;-69
2021/01/27 01:32:08;;;;;;;;;;;;;;;17.24;58.99;101375.19;4949226;28;1340;-70
2021/01/27 01:34:34;;;;;;;;;;;;;;;17.26;58.74;101368.09;4951025;28;1304;-69
2021/01/27 01:37:00;;;;;;;;;;;;;;;17.23;58.69;101368.22;4950773;28;780;-70
2021/01/27 01:39:28;;;;;;;;;;;;;;;17.26;59.19;101368.97;4950932;28;1312;-70
2021/01/27 01:41:56;;;;;;;;;;;;;;;17.24;58.61;101369.91;4950737;29;1943;-69
2021/01/27 01:44:22;;;;;;;;;;;;;;;17.22;58.56;101374.41;4950577;28;1618;-69
2021/01/27 01:46:48;;;;;;;;;;;;;;;17.25;58.50;101371.66;4950374;29;767;-70
2021/01/27 01:49:15;;;;;;;;;;;;;;;17.25;58.70;101361.13;4950042;28;1268;-69
2021/01/27 01:51:44;;;;;;;;;;;;;;;17.24;58.48;101362.03;4932937;29;1294;-69
2021/01/27 01:54:23;;;;;;;;;;;;;;;17.22;58.78;101361.25;4950690;28;1281;-69
2021/01/27 01:56:55;;;;;;;;;;;;;;;17.23;58.83;101358.56;4951572;28;1429;-69
2021/01/27 01:59:21;;;;;;;;;;;;;;;17.23;58.50;101352.44;4952473;28;1328;-69
2021/01/27 02:01:52;;;;;;;;;;;;;;;17.21;58.70;101368.28;4969821;28;1919;-69
2021/01/27 02:04:18;;;;;;;;;;;;;;;17.19;58.54;101374.53;4969594;28;1368;-68
2021/01/27 02:06:45;;;;;;;;;;;;;;;17.18;58.67;101363.13;4952824;28;787;-67
2021/01/27 02:09:11;;;;;;;;;;;;;;;17.19;58.51;101374.53;4969581;28;1316;-68
2021/01/27 02:11:40;;;;;;;;;;;;;;;17.18;58.55;101359.63;4970810;28;843;-67
2021/01/27 02:14:26;;;;;;;;;;;;;;;17.16;58.70;101358.84;4962604;28;1249;-67
2021/01/27 02:17:10;;;;;;;;;;;;;;;17.15;58.59;101349.22;4953791;29;1080;-69
2021/01/27 02:19:49;;;;;;;;;;;;;;;17.16;58.64;101340.44;4954209;29;1388;-68
2021/01/27 02:22:15;;;;;;;;;;;;;;;17.15;58.72;101343.97;4953779;29;1972;-69
2021/01/27 02:24:57;;;;;;;;;;;;;;;17.16;58.52;101337.78;4936310;29;1254;-68
2021/01/27 02:27:27;;;;;;;;;;;;;;;17.15;58.72;101325.53;4953666;29;839;-70
2021/01/27 02:29:56;;;;;;;;;;;;;;;17.13;58.48;101325.63;4936264;29;1263;-68
2021/01/27 02:32:35;;;;;;;;;;;;;;;17.12;58.65;101323.91;4953949;29;1081;-69
2021/01/27 02:35:11;;;;;;;;;;;;;;;17.14;58.54;101318.59;4936812;29;1203;-69
2021/01/27 02:37:41;;;;;;;;;;;;;;;17.14;58.39;101313.31;4936420;29;1321;-69
2021/01/27 02:40:17;;;;;;;;;;;;;;;17.14;58.42;101310.69;4954020;29;997;-69
2021/01/27 02:42:50;;;;;;;;;;;;;;;17.12;58.54;101312.50;4920458;29;1911;-69
2021/01/27 02:45:26;;;;;;;;;;;;;;;17.12;58.42;101309.88;4953676;29;810;-67
2021/01/27 02:48:18;;;;;;;;;;;;;;;17.13;58.60;101320.34;4936407;29;1284;-69
2021/01/27 02:50:50;;;;;;;;;;;;;;;17.12;58.84;101316.00;4952686;29;1249;-67
2021/01/27 02:53:18;;;;;;;;;;;;;;;17.11;58.52;101305.56;4953190;28;1344;-67
2021/01/27 02:55:58;;;;;;;;;;;;;;;17.12;58.67;101304.59;4936896;28;1548;-67
2021/01/27 02:58:27;;;;;;;;;;;;;;;17.09;58.62;101308.22;4953330;29;1368;-68
2021/01/27 03:00:59;;;;;;;;;;;;;;;17.11;58.81;101316.06;4965883;28;838;-70
2021/01/27 03:03:27;;;;;;;;;;;;;;;17.12;58.65;101323.03;4972240;28;1922;-69
2021/01/27 03:05:59;;;;;;;;;;;;;;;17.12;58.86;101323.03;4972306;28;811;-69
2021/01/27 03:08:27;;;;;;;;;;;;;;;17.07;58.75;101319.75;4954625;28;1324;-69
2021/01/27 03:11:04;;;;;;;;;;;;;;;17.08;58.58;101311.81;4972302;28;787;-68
2021/01/27 03:13:30;;;;;;;;;;;;;;;17.10;58.88;101301.19;4972177;28;1275;-69
2021/01/27 03:15:58;;;;;;;;;;;;;;;17.09;58.74;101291.56;4951431;29;1323;-70
2021/01/27 03:18:27;;;;;;;;;;;;;;;17.08;58.82;101290.75;4952747;29;1360;-70
2021/01/27 03:20:59;;;;;;;;;;;;;;;17.08;58.38;101280.22;4952650;29;843;-70
2021/01/27 03:23:42;;;;;;;;;;;;;;;17.07;58.60;101272.38;4949963;28;1914;-69
2021/01/27 03:26:11;;;;;;;;;;;;;;;17.08;58.80;101266.19;4952675;29;859;-70
2021/01/27 03:28:40;;;;;;;;;;;;;;;17.07;59.04;101270.59;4952916;28;1217;-70
2021/01/27 03:31:06;;;;;;;;;;;;;;;17.04;58.56;101268.09;4935501;29;816;-69
2021/01/27 03:33:41;;;;;;;;;;;;;;;17.11;58.79;101273.97;4951718;28;1297;-69
2021/01/27 03:36:10;;;;;;;;;;;;;;;17.08;59.12;101292.50;4952450;29;573;-69
2021/01/27 03:38:38;;;;;;;;;;;;;;;17.06;58.66;101292.56;4935043;29;1339;-69
2021/01/27 03:41:16;;;;;;;;;;;;;;;17.06;59.10;101273.28;4938659;29;808;-69
2021/01/27 03:43:47;;;;;;;;;;;;;;;17.05;59.03;101266.31;4934863;29;1910;-70
2021/01/27 03:46:46;;;;;;;;;;;;;;;17.06;58.90;101254.84;4952477;29;1085;-69
2021/01/27 03:49:16;;;;;;;;;;;;;;;17.02;59.30;101248.88;4930379;29;1316;-69
2021/01/27 03:51:47;;;;;;;;;;;;;;;17.00;59.20;101239.31;4952315;29;835;-69
2021/01/27 03:54:18;;;;;;;;;;;;;;;17.02;59.25;101248.88;4952581;29;1216;-70
2021/01/27 03:56:50;;;;;;;;;;;;;;;17.03;59.09;101262.88;4950683;29;1281;-69
2021/01/27 03:59:16;;;;;;;;;;;;;;;17.01;58.81;101262.09;4952232;29;1235;-69
2021/01/27 04:01:46;;;;;;;;;;;;;;;17.00;59.11;101252.47;4952024;29;876;-68
2021/01/27 04:04:13;;;;;;;;;;;;;;;17.02;59.37;101253.28;4951596;28;1911;-70
2021/01/27 04:06:40;;;;;;;;;;;;;;;16.98;59.46;101262.22;4950510;29;1171;-70
2021/01/27 04:09:06;;;;;;;;;;;;;;;17.01;59.10;101262.09;4950098;28;1266;-68
2021/01/27 04:11:32;;;;;;;;;;;;;;;16.99;59.13;101256.91;4934477;29;1045;-68
2021/01/27 04:14:00;;;;;;;;;;;;;;;17.00;59.23;101249.84;4950113;29;1214;-69
2021/01/27 04:16:26;;;;;;;;;;;;;;;16.95;59.28;101247.41;4951707;29;776;-70
2021/01/27 04:18:52;;;;;;;;;;;;;;;17.01;59.41;101257.69;4951912;28;1296;-68
2021/01/27 04:21:19;;;;;;;;;;;;;;;17.02;59.12;101263.81;4934557;29;892;-69
2021/01/27 04:23:45;;;;;;;;;;;;;;;16.99;59.02;101264.81;4951714;28;2011;-68
2021/01/27 04:26:11;;;;;;;;;;;;;;;16.98;58.91;101264.84;4951916;29;1079;-68
2021/01/27 04:28:37;;;;;;;;;;;;;;;16.90;59.14;101259.91;4950556;28;1254;-68
2021/01/27 04:31:03;;;;;;;;;;;;;;;16.97;59.10;101277.16;4951767;28;788;-68
2021/01/27 04:33:30;;;;;;;;;;;;;;;16.97;59.20;101271.88;4949904;28;1317;-69
2021/01/27 04:35:56;;;;;;;;;;;;;;;16.97;58.98;101265.75;4951372;29;1134;-70
2021/01/27 04:38:22;;;;;;;;;;;;;;;16.96;59.16;101258.81;4933095;29;1308;-68
2021/01/27 04:40:53;;;;;;;;;;;;;;;16.94;59.21;101261.47;4951539;28;779;-68
2021/01/27 04:43:21;;;;;;;;;;;;;;;16.93;59.07;101252.72;4951703;29;1968;-69
2021/01/27 04:45:51;;;;;;;;;;;;;;;16.93;59.27;101249.28;4951498;29;1038;-69
2021/01/27 04:48:38;;;;;;;;;;;;;;;16.94;59.05;101235.16;4951116;29;1281;-68
2021/01/27 04:51:09;;;;;;;;;;;;;;;16.93;59.27;101236.94;4927082;29;1306;-68
2021/01/27 04:53:54;;;;;;;;;;;;;;;16.97;59.13;101223.66;4951270;29;1373;-71
2021/01/27 04:56:35;;;;;;;;;;;;;;;16.96;59.13;101228.09;4951510;29;977;-69
2021/01/27 04:59:12;;;;;;;;;;;;;;;16.93;59.25;101223.78;4934003;29;1244;-69
2021/01/27 05:01:52;;;;;;;;;;;;;;;16.90;59.45;101234.44;4951705;29;732;-69
2021/01/27 05:04:44;;;;;;;;;;;;;;;16.94;59.21;101243.94;4950807;28;1985;-69
2021/01/27 05:07:12;;;;;;;;;;;;;;;16.94;59.42;101220.25;4949356;29;1186;-69
2021/01/27 05:09:47;;;;;;;;;;;;;;;16.92;59.31;101206.31;4950784;29;1218;-69
2021/01/27 05:12:15;;;;;;;;;;;;;;;16.92;59.75;101208.94;4951968;28;1611;-68
2021/01/27 05:14:47;;;;;;;;;;;;;;;16.92;59.37;101216.81;4970372;28;1283;-68
2021/01/27 05:17:15;;;;;;;;;;;;;;;16.92;59.44;101227.34;4952059;28;1374;-68
2021/01/27 05:19:43;;;;;;;;;;;;;;;16.93;59.44;101225.59;4969946;28;1245;-69
2021/01/27 05:22:11;;;;;;;;;;;;;;;16.92;59.47;101205.44;4970039;28;1910;-69
2021/01/27 05:24:39;;;;;;;;;;;;;;;16.92;59.51;101203.66;4936684;28;1365;-68
2021/01/27 05:27:07;;;;;;;;;;;;;;;16.93;59.49;101208.00;4952641;28;1310;-69
2021/01/27 05:29:45;;;;;;;;;;;;;;;16.91;59.55;101207.22;4970267;28;1347;-68
2021/01/27 05:32:12;;;;;;;;;;;;;;;16.91;59.46;101204.59;4970026;28;775;-68
2021/01/27 05:34:41;;;;;;;;;;;;;;;16.89;59.30;101213.47;4968711;28;1290;-68
2021/01/27 05:37:18;;;;;;;;;;;;;;;16.88;59.23;101212.59;4970072;28;800;-69
2021/01/27 05:39:45;;;;;;;;;;;;;;;16.88;59.46;101204.72;4952970;28;1348;-69
2021/01/27 05:42:29;;;;;;;;;;;;;;;16.88;59.24;101215.22;4970243;28;1915;-69
2021/01/27 05:45:15;;;;;;;;;;;;;;;16.88;59.54;101202.06;4967074;28;1543;-69
2021/01/27 05:47:42;;;;;;;;;;;;;;;16.88;59.41;101204.72;4955614;28;1356;-69
2021/01/27 05:50:15;;;;;;;;;;;;;;;16.90;59.67;101192.34;4973780;28;926;-69
2021/01/27 05:52:41;;;;;;;;;;;;;;;16.90;59.64;101212.56;4954434;28;1214;-69
2021/01/27 05:55:08;;;;;;;;;;;;;;;16.88;59.52;101220.50;4972698;28;1032;-69
2021/01/27 05:57:34;;;;;;;;;;;;;;;16.85;59.61;101209.25;4956041;28;1320;-69
2021/01/27 06:00:13;;;;;;;;;;;;;;;16.88;59.90;101209.97;4962865;28;1371;-69
2021/01/27 06:02:41;;;;;;;;;;;;;;;16.88;59.42;101195.94;4954058;28;1911;-68
2021/01/27 06:05:08;;;;;;;;;;;;;;;16.85;59.47;101186.41;4954153;28;1175;-68
2021/01/27 06:07:35;;;;;;;;;;;;;;;16.86;59.36;101182.88;4952503;28;1222;-68
2021/01/27 06:10:19;;;;;;;;;;;;;;;16.86;59.35;101179.38;4954449;29;1206;-68
2021/01/27 06:12:46;;;;;;;;;;;;;;;16.86;59.70;101184.66;4936473;29;1283;-69
2021/01/27 06:15:14;;;;;;;;;;;;;;;16.87;59.68;101196.91;4962476;28;1205;-69
2021/01/27 06:17:40;;;;;;;;;;;;;;;16.84;59.47;101200.47;4973184;28;1237;-69
2021/01/27 06:20:16;;;;;;;;;;;;;;;16.84;59.45;101208.38;4973676;28;1033;-69
2021/01/27 06:22:43;;;;;;;;;;;;;;;16.92;60.29;101202.81;4939600;28;1919;-69
2021/01/27 06:25:21;;;;;;;;;;;;;;;16.97;60.69;101208.72;4953666;28;1620;-76
2021/01/27 06:27:48;;;;;;;;;;;;;;;16.87;60.47;101189.84;4939712;28;1215;-77
2021/01/27 06:30:14;;;;;;;;;;;;;;;16.92;60.08;101177.34;4956061;28;830;-74
2021/01/27 06:32:41;;;;;;;;;;;;;;;16.94;59.96;101177.28;4973150;28;1221;-77
2021/01/27 06:35:21;;;;;;;;;;;;;;;16.93;59.68;101184.31;4952185;28;1544;-78
2021/01/27 06:38:09;;;;;;;;;;;;;;;17.06;60.53;101204.84;4948792;28;1363;-71
2021/01/27 06:41:10;;;;;;;;;;;;;;;;;;;;;
2021/01/27 06:44:18;;;;;;;;;;;;;;;16.89;59.70;101195.91;4972862;28;1914;-65
2021/01/27 06:47:06;;;;;;;;;;;;;;;16.86;59.68;101190.78;4936431;29;1328;-64
2021/01/27 06:49:35;;;;;;;;;;;;;;;16.92;59.99;101205.44;4969981;28;1356;-66
2021/01/27 06:52:33;;;;;;;;;;;;;;;16.87;59.60;101202.97;4955382;28;1370;-67
2021/01/27 06:55:21;;;;;;;;;;;;;;;16.86;60.02;101206.56;4939289;28;1105;-67
2021/01/27 06:57:48;;;;;;;;;;;;;;;16.89;59.92;101211.69;4972266;28;1266;-66
2021/01/27 07:00:23;;;;;;;;;;;;;;;17.01;59.62;101219.97;4972500;28;1108;-66
2021/01/27 07:03:02;;;;;;;;;;;;;;;17.01;59.81;101220.84;4972341;28;1906;-68
2021/01/27 07:05:43;;;;;;;;;;;;;;;16.99;59.64;101230.59;4972256;28;1251;-67
2021/01/27 07:08:29;;;;;;;;;;;;;;;17.01;59.56;101235.78;4972239;28;1320;-68
2021/01/27 07:11:04;;;;;;;;;;;;;;;17.04;60.40;101236.50;4972542;28;1091;-65
2021/01/27 07:13:49;;;;;;;;;;;;;;;17.01;60.16;101238.41;4971691;28;1328;-65
2021/01/27 07:16:40;;;;;;;;;;;;;;;16.98;59.95;101212.22;4972510;28;1024;-65
2021/01/27 07:19:19;;;;;;;;;;;;;;;16.99;59.66;101198.16;4955556;28;1358;-68
2021/01/27 07:21:54;;;;;;;;;;;;;;;16.99;59.71;101203.41;4972456;28;1189;-68
2021/01/27 07:24:56;;;;;;;;;;;;;;;16.98;59.82;101230.63;5035190;23;1911;-68
2021/01/27 07:27:23;;;;;;;;;;;;;;;16.97;59.71;101239.44;4952897;29;875;-65
2021/01/27 07:30:02;;;;;;;;;;;;;;;16.93;59.46;101229.03;4953137;29;1359;-65
2021/01/27 07:32:31;;;;;;;;;;;;;;;16.94;59.80;101219.38;4952349;29;965;-66
2021/01/27 07:35:10;;;;;;;;;;;;;;;16.94;59.56;101236.03;4953073;29;736;-69
2021/01/27 07:38:36;;;;;;;;;;;;;;;16.91;59.66;101262.47;4928205;29;1218;-66
2021/01/27 07:41:35;;;;;;;;;;;;;;;16.91;59.51;101267.72;4935294;29;960;-66
2021/01/27 07:44:45;;;;;;;;;;;;;;;16.94;59.71;101261.47;5006328;23;1907;-66
2021/01/27 07:47:44;;;;;;;;;;;;;;;17.04;60.37;101261.97;4971512;28;1120;-65
2021/01/27 07:50:26;;;;;;;;;;;;;;;17.08;60.34;101253.91;4944845;28;1753;-66
2021/01/27 07:53:05;;;;;;;;;;;;;;;17.06;60.14;101265.38;4970962;28;1284;-66
2021/01/27 07:55:40;;;;;;;;;;;;;;;17.19;60.42;101272.72;4971238;28;1127;-66
2021/01/27 07:58:10;;;;;;;;;;;;;;;17.17;59.99;101276.34;4953805;28;1281;-66
2021/01/27 08:00:49;;;;;;;;;;;;;;;17.09;60.02;101275.78;4952741;28;1384;-67
2021/01/27 08:06:42;;;;;;;;;;;;;;;17.05;60.19;101280.34;4800519;29;1626;-64
2021/01/27 08:09:09;;;;;;;;;;;;;;;17.05;60.35;101282.97;4843733;29;1379;-64
2021/01/27 08:11:39;;;;;;;;;;;;;;;17.09;59.91;101286.31;4873037;29;1108;-67
2021/01/27 08:14:07;;;;;;;;;;;;;;;17.12;60.26;101288.81;4883665;29;1318;-63
2021/01/27 08:16:38;;;;;;;;;;;;;;;17.13;60.21;101299.28;4891512;29;1085;-66
2021/01/27 08:19:10;;;;;;;;;;;;;;;17.23;60.12;101299.78;4891581;29;1317;-64
2021/01/27 08:21:45;;;;;;;;;;;;;;;17.27;61.35;101280.28;4891673;29;927;-66
2021/01/27 08:24:30;;;;;;;;;;;;;;;17.35;63.13;101278.19;4887194;29;1908;-65
2021/01/27 08:26:56;;;;;;;;;;;;;;;17.41;63.92;101267.38;4868050;29;1410;-64
2021/01/27 08:29:26;;;;;;;;;;;;;;;17.45;62.58;101259.28;4854394;29;1204;-66
2021/01/27 08:32:19;;;;;;;;;;;;;;;17.55;61.91;101258.91;4854280;29;1041;-64
2021/01/27 08:34:45;;;;;;;;;;;;;;;17.63;62.50;101262.09;4840465;29;1475;-65
2021/01/27 08:37:18;;;;;;;;;;;;;;;17.64;63.41;101264.63;4892965;29;1490;-65
2021/01/27 08:39:45;;;;;;;;;;;;;;;17.72;64.82;101262.50;4950963;29;1211;-67
2021/01/27 08:42:19;;;;;;;;;;;;;;;17.65;61.09;101271.63;4950674;28;1536;-66
2021/01/27 08:44:46;;;;;;;;;;;;;;;17.69;62.03;101267.91;4968684;28;1902;-66
2021/01/27 08:47:15;;;;;;;;;;;;;;;17.72;64.26;101265.13;4950912;28;1459;-66
2021/01/27 08:49:41;;;;;;;;;;;;;;;17.74;63.99;101270.34;4969771;28;1229;-66
2021/01/27 08:52:11;;;;;;;;;;;;;;;17.74;64.62;101273.84;4953048;28;1058;-66
2021/01/27 08:54:37;;;;;;;;;;;;;;;17.73;64.66;101263.38;4970126;28;1244;-67
2021/01/27 08:57:19;;;;;;;;;;;;;;;17.69;65.04;101257.38;4952583;28;1431;-68
2021/01/27 08:59:54;;;;;;;;;;;;;;;17.67;65.14;101258.38;4969926;28;1316;-67
2021/01/27 09:02:39;;;;;;;;;;;;;;;17.64;64.77;101262.00;4949293;28;1193;-66
2021/01/27 09:05:10;;;;;;;;;;;;;;;17.63;64.91;101269.97;4950700;28;870;-66
2021/01/27 09:07:46;;;;;;;;;;;;;;;17.61;64.93;101263.91;4950833;29;1336;-69
2021/01/27 09:10:12;;;;;;;;;;;;;;;17.59;64.87;101261.34;4950605;29;784;-68
2021/01/27 09:12:38;;;;;;;;;;;;;;;17.58;64.63;101285.13;4950688;29;1367;-67
2021/01/27 09:15:05;;;;;;;;;;;;;;;17.49;64.42;101276.66;4933359;29;1269;-67
2021/01/27 09:17:33;;;;;;;;;;;;;;;17.55;64.64;101286.09;4950969;28;1140;-68
2021/01/27 09:20:00;;;;;;;;;;;;;;;17.52;63.94;101288.84;4950596;28;823;-67
2021/01/27 09:22:26;;;;;;;;;;;;;;;17.50;63.39;101277.53;4950649;28;1031;-65
2021/01/27 09:24:54;;;;;;;;;;;;;;;17.46;64.72;101271.53;4950433;29;1914;-66
2021/01/27 09:27:20;;;;;;;;;;;;;;;17.54;64.61;101278.25;4962373;28;1496;-70
2021/01/27 09:29:53;;;;;;;;;;;;;;;17.55;63.90;101277.34;4969334;28;1619;-69
2021/01/27 09:32:23;;;;;;;;;;;;;;;17.55;63.88;101279.97;4937202;28;1167;-69
2021/01/27 09:34:50;;;;;;;;;;;;;;;17.55;64.02;101285.25;4953349;28;1336;-70
2021/01/27 09:37:57;;;;;;;;;;;;;;;17.51;63.93;101296.84;4969851;28;1245;-68
2021/01/27 09:40:26;;;;;;;;;;;;;;;17.47;64.38;101301.38;4958727;28;1314;-69
2021/01/27 09:43:01;;;;;;;;;;;;;;;17.48;64.28;101295.16;4970011;28;1914;-69
2021/01/27 09:45:31;;;;;;;;;;;;;;;17.45;64.30;101301.41;4952299;28;1276;-71
2021/01/27 09:47:58;;;;;;;;;;;;;;;17.42;63.76;101290.16;4949221;29;1627;-71
2021/01/27 09:50:26;;;;;;;;;;;;;;;17.40;63.75;101306.03;4950879;28;850;-71
2021/01/27 09:52:54;;;;;;;;;;;;;;;17.39;63.18;101295.53;4950740;28;1398;-72
2021/01/27 09:55:21;;;;;;;;;;;;;;;17.42;63.16;101313.84;4950361;28;988;-72
2021/01/27 09:57:50;;;;;;;;;;;;;;;17.40;63.45;101323.59;4950296;29;1296;-70
2021/01/27 10:00:19;;;;;;;;;;;;;;;17.48;63.46;101305.69;4932934;29;752;-70
2021/01/27 10:02:46;;;;;;;;;;;;;;;17.49;63.13;101312.69;4932812;29;1989;-69
2021/01/27 10:05:32;;;;;;;;;;;;;;;17.42;62.67;101311.22;4955874;28;1535;-73
2021/01/27 10:07:59;;;;;;;;;;;;;;;17.49;63.41;101324.06;4969383;28;1391;-67
2021/01/27 10:10:26;;;;;;;;;;;;;;;17.57;63.54;101321.13;4951798;28;811;-67
2021/01/27 10:12:56;;;;;;;;;;;;;;;17.47;62.98;101330.34;4950510;29;1281;-69
2021/01/27 10:15:23;;;;;;;;;;;;;;;17.35;62.75;101317.69;4950625;28;779;-69
2021/01/27 10:17:52;;;;;;;;;;;;;;;17.34;62.58;101313.34;4932742;29;1364;-68
2021/01/27 10:20:25;;;;;;;;;;;;;;;17.33;62.48;101323.00;4932837;29;780;-67
2021/01/27 10:22:58;;;;;;;;;;;;;;;17.33;62.35;101312.47;4949767;28;1985;-67
2021/01/27 10:25:33;;;;;;;;;;;;;;;17.32;62.82;101312.56;4950219;29;764;-68
2021/01/27 10:28:18;;;;;;;;;;;;;;;17.29;62.99;101307.41;4933273;29;1299;-66
2021/01/27 10:30:51;;;;;;;;;;;;;;;17.31;62.82;101318.72;4950255;29;834;-67
2021/01/27 10:33:30;;;;;;;;;;;;;;;17.30;63.12;101330.16;4952303;28;1296;-68
2021/01/27 10:35:57;;;;;;;;;;;;;;;17.27;62.60;101338.19;4936476;29;759;-68
2021/01/27 10:38:24;;;;;;;;;;;;;;;17.25;62.24;101325.13;4953716;28;1457;-67
2021/01/27 10:41:08;;;;;;;;;;;;;;;17.30;62.33;101348.59;4936390;29;823;-68
2021/01/27 10:43:34;;;;;;;;;;;;;;;17.28;62.50;101345.19;4953134;28;1973;-68
2021/01/27 10:46:19;;;;;;;;;;;;;;;17.25;62.25;101347.94;4936089;29;792;-67
2021/01/27 10:48:45;;;;;;;;;;;;;;;17.26;62.55;101339.13;4953644;29;1387;-67
2021/01/27 10:51:12;;;;;;;;;;;;;;;17.26;62.49;101331.25;4935777;29;1168;-68
2021/01/27 10:53:43;;;;;;;;;;;;;;;17.25;62.50;101324.25;4953634;28;1507;-68
2021/01/27 10:56:14;;;;;;;;;;;;;;;17.23;62.55;101332.22;4953269;29;772;-67
2021/01/27 10:58:40;;;;;;;;;;;;;;;17.25;62.72;101327.75;4953314;29;1391;-68
2021/01/27 11:01:07;;;;;;;;;;;;;;;17.26;62.24;101318.94;4953061;28;772;-68
2021/01/27 11:03:33;;;;;;;;;;;;;;;17.27;62.50;101322.41;4953175;29;1997;-69
2021/01/27 11:06:01;;;;;;;;;;;;;;;17.27;62.40;101333.78;4952777;29;807;-69
2021/01/27 11:08:29;;;;;;;;;;;;;;;17.27;62.58;101330.31;4935618;29;1289;-67
2021/01/27 11:10:55;;;;;;;;;;;;;;;17.23;61.76;101320.84;4952779;28;839;-68
2021/01/27 11:13:22;;;;;;;;;;;;;;;17.23;62.15;101315.56;4957456;28;1766;-68
2021/01/27 11:15:48;;;;;;;;;;;;;;;17.19;62.16;101335.91;4965005;28;1900;-68
2021/01/27 11:18:15;;;;;;;;;;;;;;;17.12;62.30;101317.78;4954663;28;1901;-67
2021/01/27 11:20:42;;;;;;;;;;;;;;;17.18;62.73;101321.00;4936003;28;1858;-69
2021/01/27 11:23:09;;;;;;;;;;;;;;;17.14;62.86;101322.06;4969290;28;1989;-68
2021/01/27 11:25:35;;;;;;;;;;;;;;;17.18;62.59;101331.53;4970483;28;752;-68
2021/01/27 11:28:01;;;;;;;;;;;;;;;17.21;62.52;101320.03;4970920;28;1284;-69
2021/01/27 11:30:29;;;;;;;;;;;;;;;17.28;61.88;101324.13;4957945;28;1818;-68
2021/01/27 11:32:55;;;;;;;;;;;;;;;17.28;61.84;101334.66;4951977;28;1292;-68
2021/01/27 11:35:23;;;;;;;;;;;;;;;17.29;62.08;101325.84;4950410;28;1053;-68
2021/01/27 11:37:49;;;;;;;;;;;;;;;17.26;61.89;101320.72;4966721;28;1746;-66
2021/01/27 11:40:17;;;;;;;;;;;;;;;17.27;62.03;101311.88;4970167;28;850;-75
2021/01/27 11:42:44;;;;;;;;;;;;;;;17.35;62.49;101304.53;4970093;28;1288;-70
2021/01/27 11:45:10;;;;;;;;;;;;;;;17.42;62.36;101300.69;4969448;28;1976;-75
2021/01/27 11:47:37;;;;;;;;;;;;;;;17.45;62.19;101300.56;4936051;28;1889;-69
2021/01/27 11:50:05;;;;;;;;;;;;;;;17.48;62.15;101300.41;4958985;28;1160;-70
2021/01/27 11:52:31;;;;;;;;;;;;;;;17.41;62.42;101293.72;4952921;28;1195;-69
2021/01/27 11:54:58;;;;;;;;;;;;;;;17.41;62.62;101296.38;4968224;28;1073;-70
2021/01/27 11:57:24;;;;;;;;;;;;;;;17.38;62.50;101292.09;4934277;29;1143;-69
2021/01/27 11:59:50;;;;;;;;;;;;;;;17.39;62.54;101283.25;4951595;29;1332;-67
2021/01/27 12:02:17;;;;;;;;;;;;;;;17.40;62.01;101277.06;4950828;29;1059;-69
2021/01/27 12:04:44;;;;;;;;;;;;;;;17.42;62.51;101274.34;4938284;28;1900;-71
2021/01/27 12:07:10;;;;;;;;;;;;;;;17.43;62.24;101276.06;4933400;29;1567;-77
2021/01/27 12:10:09;;;;;;;;;;;;;;;17.44;62.25;101272.53;4953646;28;1135;-68
2021/01/27 12:12:35;;;;;;;;;;;;;;;17.47;62.11;101267.13;4969985;28;1260;-66
2021/01/27 12:15:02;;;;;;;;;;;;;;;17.54;61.71;101268.56;4953188;28;775;-72
2021/01/27 12:17:28;;;;;;;;;;;;;;;17.54;61.90;101263.28;4954203;28;1336;-72
2021/01/27 12:19:57;;;;;;;;;;;;;;;17.69;61.79;101246.84;4961117;28;1209;-70
2021/01/27 12:22:23;;;;;;;;;;;;;;;17.70;61.90;101252.97;4970898;28;1080;-70
2021/01/27 12:24:49;;;;;;;;;;;;;;;17.70;61.72;101259.09;4936038;28;1899;-66
2021/01/27 12:27:16;;;;;;;;;;;;;;;17.63;62.07;101251.53;4986274;28;1137;-70
2021/01/27 12:29:42;;;;;;;;;;;;;;;17.70;62.78;101242.41;4970953;28;1316;-69
2021/01/27 12:32:11;;;;;;;;;;;;;;;17.67;61.86;101247.81;4988677;28;948;-66
2021/01/27 12:34:38;;;;;;;;;;;;;;;17.62;61.95;101244.56;4988702;28;1249;-72
2021/01/27 12:37:04;;;;;;;;;;;;;;;17.61;61.64;101254.22;4970966;28;1336;-71
2021/01/27 12:39:31;;;;;;;;;;;;;;;17.61;61.13;101243.69;4988597;28;1248;-74
2021/01/27 12:41:57;;;;;;;;;;;;;;;17.61;61.13;101242.84;4988922;28;1064;-74
2021/01/27 12:44:40;;;;;;;;;;;;;;;17.70;61.99;101235.38;4988442;28;1902;-72
2021/01/27 12:47:07;;;;;;;;;;;;;;;17.74;61.91;101229.06;4970923;28;1328;-75
2021/01/27 12:49:33;;;;;;;;;;;;;;;17.72;61.31;101241.41;4982023;28;1515;-77
2021/01/27 12:52:04;;;;;;;;;;;;;;;17.69;61.00;101235.47;4951809;28;1079;-78
2021/01/27 12:54:39;;;;;;;;;;;;;;;17.66;60.81;101233.78;4949180;28;1238;-80
2021/01/27 12:57:20;;;;;;;;;;;;;;;17.64;59.46;101233.03;4917535;29;1342;-82
2021/01/27 13:00:27;;;;;;;;;;;;;;;17.65;58.52;101233.88;4916063;29;1533;-88
2021/01/27 13:02:55;;;;;;;;;;;;;;;17.65;58.75;101240.00;4931897;29;1317;-73
2021/01/27 13:05:24;;;;;;;;;;;;;;;17.84;58.07;101235.59;4949796;29;1923;-66
2021/01/27 13:07:50;;;;;;;;;;;;;;;17.97;58.41;101239.41;4949648;29;1240;-79
2021/01/27 13:10:17;;;;;;;;;;;;;;;17.96;59.42;101235.03;4916551;29;1095;-71
2021/01/27 13:12:44;;;;;;;;;;;;;;;17.92;59.80;101233.50;4949363;28;1334;-73
2021/01/27 13:15:16;;;;;;;;;;;;;;;17.94;59.63;101228.13;4916455;29;1217;-68
2021/01/27 13:17:45;;;;;;;;;;;;;;;17.98;60.50;101235.84;4932352;29;1376;-72